createdAt,value
2019-02-06T00:00:55.611Z,83.30
2019-02-06T00:03:25.635Z,82.00
2019-02-06T00:05:55.765Z,83.40
2019-02-06T00:08:25.809Z,81.40
2019-02-06T00:10:55.666Z,83.80
2019-02-06T00:13:28.356Z,84.40
2019-02-06T00:15:58.161Z,81.90
2019-02-06T00:18:28.718Z,80.10
2019-02-06T00:20:58.189Z,80.70
2019-02-06T00:23:28.368Z,79.80
2019-02-06T00:26:17.468Z,79.70
2019-02-06T00:28:48.156Z,79.20
2019-02-06T00:31:18.670Z,78.10
2019-02-06T00:33:49.071Z,79.30
2019-02-06T00:36:18.894Z,77.90
2019-02-06T00:38:49.127Z,79.50
2019-02-06T00:41:20.256Z,76.70
2019-02-06T00:43:50.894Z,78.50
2019-02-06T00:46:21.017Z,78.80
2019-02-06T00:48:52.435Z,80.50
2019-02-06T00:51:21.898Z,81.50
2019-02-06T00:54:13.900Z,82.90
2019-02-06T00:57:25.128Z,86.10
2019-02-06T00:59:39.847Z,87.60
2019-02-06T01:02:09.640Z,88.50
2019-02-06T01:08:46.672Z,90.80
2019-02-06T01:12:00.703Z,92.50
2019-02-06T01:14:28.087Z,92.60
2019-02-06T01:22:21.809Z,92.70
2019-02-06T01:31:55.306Z,92.10
2019-02-06T01:34:25.867Z,92.10
2019-02-06T01:36:58.851Z,92.20
2019-02-06T01:40:10.168Z,92.20
2019-02-06T01:42:29.849Z,92.30
2019-02-06T01:45:03.044Z,92.70
2019-02-06T01:47:38.350Z,92.60
2019-02-06T01:50:27.069Z,92.10
2019-02-06T01:53:40.699Z,91.80
2019-02-06T01:56:15.757Z,92.30
2019-02-06T01:58:46.291Z,92.40
2019-02-06T02:01:16.388Z,93.00
2019-02-06T02:03:46.376Z,93.10
2019-02-06T02:06:16.888Z,92.60
2019-02-06T02:08:57.370Z,92.30
2019-02-06T02:15:08.766Z,91.20
2019-02-06T02:18:32.866Z,91.90
2019-02-06T02:21:07.876Z,92.70
2019-02-06T02:23:57.252Z,92.70
2019-02-06T02:27:06.703Z,91.10
2019-02-06T02:29:37.287Z,91.30
2019-02-06T02:32:08.291Z,92.70
2019-02-06T02:34:37.733Z,92.70
2019-02-06T02:37:41.056Z,92.60
2019-02-06T02:40:11.644Z,91.60
2019-02-06T02:42:42.388Z,91.40
2019-02-06T02:45:13.871Z,90.70
2019-02-06T02:47:47.801Z,90.60
2019-02-06T02:50:28.953Z,90.80
2019-02-06T02:52:58.910Z,91.20
2019-02-06T02:55:29.144Z,91.20
2019-02-06T02:57:59.346Z,91.60
2019-02-06T03:00:42.360Z,92.70
2019-02-06T03:03:37.396Z,92.90
2019-02-06T03:06:36.695Z,92.80
2019-02-06T03:09:16.978Z,92.70
2019-02-06T03:11:51.311Z,92.40
2019-02-06T03:14:21.492Z,92.20
2019-02-06T03:16:52.431Z,91.80
2019-02-06T03:19:22.316Z,91.70
2019-02-06T03:22:06.908Z,91.80
2019-02-06T03:31:57.642Z,92.80
2019-02-06T03:34:28.595Z,93.00
2019-02-06T03:36:58.620Z,93.20
2019-02-06T03:39:29.288Z,93.70
2019-02-06T03:41:59.409Z,93.60
2019-02-06T03:44:29.582Z,93.20
2019-02-06T03:47:00.137Z,93.40
2019-02-06T03:49:29.604Z,93.20
2019-02-06T03:51:59.839Z,93.10
2019-02-06T03:54:30.824Z,92.80
2019-02-06T03:57:00.276Z,92.50
2019-02-06T03:59:30.425Z,92.30
2019-02-06T04:02:00.705Z,92.10
2019-02-06T04:04:30.925Z,92.10
2019-02-06T04:07:02.115Z,92.40
2019-02-06T04:09:32.523Z,92.70
2019-02-06T04:12:02.818Z,93.40
2019-02-06T04:14:33.012Z,93.20
2019-02-06T04:17:02.541Z,93.40
2019-02-06T04:19:32.655Z,93.20
2019-02-06T04:22:02.899Z,93.30
2019-02-06T04:27:31.653Z,93.20
2019-02-06T04:30:21.988Z,93.30
2019-02-06T04:33:04.083Z,93.50
2019-02-06T04:36:43.051Z,93.50
2019-02-06T04:39:19.824Z,93.70
2019-02-06T04:41:49.418Z,94.30
2019-02-06T04:44:19.571Z,94.40
2019-02-06T04:46:49.764Z,94.80
2019-02-06T04:49:19.990Z,94.80
2019-02-06T04:51:52.702Z,94.40
2019-02-06T04:54:23.013Z,94.30
2019-02-06T04:57:12.461Z,94.40
2019-02-06T05:03:51.805Z,94.20
2019-02-06T05:06:21.654Z,94.10
2019-02-06T05:08:53.449Z,93.90
2019-02-06T05:11:26.357Z,94.10
2019-02-06T05:13:56.813Z,94.10
2019-02-06T05:16:27.022Z,94.00
2019-02-06T05:18:57.403Z,94.00
2019-02-06T05:21:26.883Z,93.70
2019-02-06T05:23:56.869Z,93.20
2019-02-06T05:26:29.566Z,93.00
2019-02-06T05:28:59.895Z,93.10
2019-02-06T05:31:30.405Z,93.80
2019-02-06T05:34:00.320Z,93.90
2019-02-06T05:36:30.752Z,94.00
2019-02-06T05:39:00.678Z,93.80
2019-02-06T05:41:30.167Z,93.60
2019-02-06T05:43:59.569Z,93.50
2019-02-06T05:46:29.995Z,93.70
2019-02-06T05:49:00.145Z,92.70
2019-02-06T05:51:30.368Z,93.20
2019-02-06T05:54:00.605Z,93.60
2019-02-06T05:56:32.057Z,93.90
2019-02-06T05:59:01.813Z,94.10
2019-02-06T06:01:31.580Z,94.30
2019-02-06T06:04:02.527Z,94.80
2019-02-06T06:06:32.252Z,95.00
2019-02-06T06:09:01.790Z,95.10
2019-02-06T06:11:32.283Z,94.90
2019-02-06T06:14:02.139Z,95.40
2019-02-06T06:16:31.925Z,95.40
2019-02-06T06:19:02.472Z,95.40
2019-02-06T06:22:29.475Z,95.60
2019-02-06T06:25:04.501Z,96.00
2019-02-06T06:27:35.058Z,95.50
2019-02-06T06:30:05.411Z,96.00
2019-02-06T06:32:35.845Z,95.90
2019-02-06T06:35:06.983Z,96.00
2019-02-06T06:37:36.943Z,96.00
2019-02-06T06:40:08.520Z,96.30
2019-02-06T06:42:38.984Z,96.70
2019-02-06T06:45:10.911Z,96.40
2019-02-06T06:47:40.736Z,96.20
2019-02-06T06:50:13.128Z,96.20
2019-02-06T06:52:43.310Z,96.30
2019-02-06T06:55:13.912Z,96.30
2019-02-06T06:57:44.619Z,96.20
2019-02-06T07:00:31.504Z,96.00
2019-02-06T07:03:01.339Z,96.10
2019-02-06T07:05:30.701Z,95.80
2019-02-06T07:08:09.268Z,95.80
2019-02-06T07:10:32.749Z,96.00
2019-02-06T07:13:02.979Z,96.10
2019-02-06T07:15:34.263Z,95.70
2019-02-06T07:18:03.743Z,95.70
2019-02-06T07:20:34.224Z,95.30
2019-02-06T07:23:04.910Z,95.30
2019-02-06T07:25:35.038Z,94.70
2019-02-06T07:28:04.522Z,94.70
2019-02-06T07:30:36.389Z,94.80
2019-02-06T07:33:06.012Z,94.70
2019-02-06T07:35:36.316Z,99.90
2019-02-06T07:38:06.137Z,99.90
2019-02-06T07:40:35.702Z,95.50
2019-02-06T07:43:05.569Z,93.30
2019-02-06T07:45:35.835Z,93.50
2019-02-06T07:48:06.054Z,93.40
2019-02-06T07:50:36.195Z,93.50
2019-02-06T07:53:05.762Z,93.50
2019-02-06T07:55:36.152Z,94.40
2019-02-06T07:58:06.375Z,93.70
2019-02-06T08:00:36.867Z,93.30
2019-02-06T08:03:06.975Z,95.10
2019-02-06T08:05:37.070Z,92.70
2019-02-06T08:08:07.254Z,92.50
2019-02-06T08:10:37.601Z,91.90
2019-02-06T08:13:07.920Z,92.70
2019-02-06T08:15:37.752Z,91.90
2019-02-06T08:18:09.347Z,91.50
2019-02-06T08:20:39.186Z,90.80
2019-02-06T08:23:09.683Z,90.20
2019-02-06T08:25:39.555Z,90.10
2019-02-06T08:28:09.804Z,89.50
2019-02-06T08:30:41.103Z,89.00
2019-02-06T08:33:10.555Z,90.50
2019-02-06T08:35:40.075Z,90.70
2019-02-06T08:38:09.958Z,90.40
2019-02-06T08:40:40.394Z,89.60
2019-02-06T08:43:10.891Z,90.20
2019-02-06T08:45:41.277Z,88.60
2019-02-06T08:48:11.566Z,88.00
2019-02-06T08:50:41.576Z,87.40
2019-02-06T08:53:11.049Z,86.60
2019-02-06T08:55:41.262Z,86.40
2019-02-06T08:58:11.863Z,88.90
2019-02-06T09:00:41.659Z,88.80
2019-02-06T09:03:12.715Z,90.00
2019-02-06T09:05:43.380Z,85.50
2019-02-06T09:08:13.879Z,83.80
2019-02-06T09:10:44.077Z,85.50
2019-02-06T09:13:14.094Z,84.70
2019-02-06T09:15:44.237Z,86.70
2019-02-06T09:18:14.235Z,83.50
2019-02-06T09:20:44.699Z,83.40
2019-02-06T09:23:14.643Z,83.70
2019-02-06T09:25:44.480Z,83.50
2019-02-06T09:28:14.768Z,82.60
2019-02-06T09:30:44.690Z,81.60
2019-02-06T09:33:15.151Z,81.90
2019-02-06T09:35:45.320Z,81.80
2019-02-06T09:38:15.814Z,81.10
2019-02-06T09:40:45.525Z,80.90
2019-02-06T09:43:15.343Z,80.30
2019-02-06T09:45:45.667Z,80.50
2019-02-06T09:48:16.546Z,79.60
2019-02-06T09:50:47.003Z,79.10
2019-02-06T09:53:16.830Z,79.00
2019-02-06T09:55:47.243Z,78.20
2019-02-06T09:58:17.170Z,77.30
2019-02-06T10:00:47.732Z,77.10
2019-02-06T10:03:17.680Z,77.00
2019-02-06T10:05:48.028Z,76.90
2019-02-06T10:08:17.994Z,76.10
2019-02-06T10:10:48.171Z,76.80
2019-02-06T10:13:18.097Z,77.20
2019-02-06T10:15:48.634Z,76.50
2019-02-06T10:18:19.652Z,76.90
2019-02-06T10:20:52.128Z,77.00
2019-02-06T10:23:21.660Z,77.20
2019-02-06T10:25:53.804Z,77.20
2019-02-06T10:28:24.406Z,77.10
2019-02-06T10:30:55.490Z,77.40
2019-02-06T10:33:25.389Z,77.60
2019-02-06T10:35:55.724Z,77.50
2019-02-06T10:38:26.280Z,77.00
2019-02-06T10:40:56.212Z,76.80
2019-02-06T10:43:32.084Z,75.30
2019-02-06T10:45:57.931Z,74.80
2019-02-06T10:48:27.856Z,73.20
2019-02-06T10:50:58.464Z,73.50
2019-02-06T10:53:28.861Z,72.90
2019-02-06T10:55:58.634Z,71.80
2019-02-06T10:58:28.930Z,71.70
2019-02-06T11:01:01.628Z,70.60
2019-02-06T11:03:31.835Z,70.70
2019-02-06T11:06:01.242Z,70.60
2019-02-06T11:08:31.470Z,70.60
2019-02-06T11:11:01.981Z,70.60
2019-02-06T11:13:32.023Z,70.80
2019-02-06T11:16:01.880Z,70.60
2019-02-06T11:18:32.243Z,70.10
2019-02-06T11:21:02.064Z,70.00
2019-02-06T11:23:32.411Z,69.00
2019-02-06T11:26:02.291Z,69.20
2019-02-06T11:28:32.417Z,69.30
2019-02-06T11:31:02.923Z,69.20
2019-02-06T11:33:32.444Z,69.40
2019-02-06T11:36:01.976Z,68.80
2019-02-06T11:38:31.873Z,68.80
2019-02-06T11:41:02.099Z,69.70
2019-02-06T11:43:32.265Z,69.50
2019-02-06T11:46:02.614Z,69.60
2019-02-06T11:48:32.855Z,69.40
2019-02-06T11:51:03.196Z,70.50
2019-02-06T11:53:33.929Z,69.70
2019-02-06T11:56:04.085Z,69.30
2019-02-06T11:58:34.370Z,69.00
2019-02-06T12:01:10.412Z,69.30
2019-02-06T12:03:40.913Z,68.20
2019-02-06T12:06:11.687Z,68.30
2019-02-06T12:08:41.259Z,68.00
2019-02-06T12:11:11.823Z,68.80
2019-02-06T12:13:41.780Z,69.40
2019-02-06T12:16:12.051Z,69.00
2019-02-06T12:18:42.355Z,67.90
2019-02-06T12:21:12.910Z,68.50
2019-02-06T12:23:43.160Z,68.00
2019-02-06T12:26:23.870Z,68.10
2019-02-06T12:28:54.094Z,67.80
2019-02-06T12:31:25.440Z,67.30
2019-02-06T12:33:56.028Z,67.40
2019-02-06T12:36:26.171Z,68.10
2019-02-06T12:38:56.045Z,68.00
2019-02-06T12:41:25.952Z,67.60
2019-02-06T12:43:55.758Z,67.20
2019-02-06T12:46:24.914Z,67.80
2019-02-06T12:48:55.076Z,67.30
2019-02-06T12:51:25.640Z,67.40
2019-02-06T12:53:56.326Z,68.10
2019-02-06T12:56:25.417Z,68.30
2019-02-06T12:58:55.485Z,68.30
2019-02-06T13:01:26.008Z,68.90
2019-02-06T13:03:56.611Z,69.20
2019-02-06T13:06:26.110Z,69.30
2019-02-06T13:08:56.286Z,70.60
2019-02-06T13:11:25.445Z,70.50
2019-02-06T13:13:55.747Z,70.10
2019-02-06T13:16:25.485Z,69.90
2019-02-06T13:18:55.629Z,69.80
2019-02-06T13:21:25.793Z,70.70
2019-02-06T13:23:55.643Z,70.10
2019-02-06T13:26:25.816Z,70.50
2019-02-06T13:28:55.978Z,71.60
2019-02-06T13:31:25.592Z,71.90
2019-02-06T13:33:55.757Z,71.00
2019-02-06T13:36:25.642Z,70.90
2019-02-06T13:38:56.016Z,70.70
2019-02-06T13:41:26.041Z,70.30
2019-02-06T13:43:55.201Z,70.70
2019-02-06T13:46:24.623Z,70.40
2019-02-06T13:48:55.178Z,70.80
2019-02-06T13:51:25.303Z,70.30
2019-02-06T13:53:55.645Z,70.20
2019-02-06T13:56:25.538Z,70.50
2019-02-06T13:58:55.348Z,70.60
2019-02-06T14:01:26.198Z,70.80
2019-02-06T14:03:56.941Z,70.60
2019-02-06T14:06:27.160Z,71.40
2019-02-06T14:08:57.044Z,72.10
2019-02-06T14:11:27.261Z,72.50
2019-02-06T14:13:57.800Z,72.80
2019-02-06T14:16:27.323Z,73.00
2019-02-06T14:19:16.261Z,73.90
2019-02-06T14:21:46.793Z,74.10
2019-02-06T14:24:47.264Z,74.50
2019-02-06T14:27:35.904Z,75.30
2019-02-06T14:30:38.246Z,75.60
2019-02-06T14:33:48.954Z,75.90
2019-02-06T14:37:14.257Z,75.90
2019-02-06T14:40:17.341Z,75.80
2019-02-06T14:43:37.529Z,75.50
2019-02-06T14:46:42.409Z,75.60
2019-02-06T14:49:47.342Z,75.10
2019-02-06T14:53:04.227Z,74.70
2019-02-06T14:56:01.922Z,75.10
2019-02-06T14:59:17.989Z,76.30
2019-02-06T15:02:44.519Z,76.70
2019-02-06T15:06:16.640Z,76.30
2019-02-06T15:09:14.670Z,76.10
2019-02-06T15:12:31.504Z,76.80
2019-02-06T15:15:14.410Z,76.80
2019-02-06T15:18:16.573Z,76.70
2019-02-06T15:20:57.625Z,77.10
2019-02-06T15:23:42.507Z,77.50
2019-02-06T15:26:51.019Z,77.60
2019-02-06T15:29:37.526Z,77.90
2019-02-06T15:32:19.329Z,78.00
2019-02-06T15:35:19.953Z,79.00
2019-02-06T15:38:29.701Z,79.90
2019-02-06T15:41:08.864Z,80.20
2019-02-06T15:44:26.474Z,80.70
2019-02-06T15:47:27.722Z,81.00
2019-02-06T15:50:13.705Z,81.60
2019-02-06T15:53:09.172Z,81.80
2019-02-06T15:56:15.162Z,82.10
2019-02-06T15:59:19.054Z,81.50
2019-02-06T16:02:26.899Z,81.50
2019-02-06T16:05:41.225Z,81.80
2019-02-06T16:08:58.289Z,81.90
2019-02-06T16:12:16.727Z,80.80
2019-02-06T16:15:12.061Z,81.00
2019-02-06T16:18:27.829Z,80.70
2019-02-06T16:21:24.093Z,79.40
2019-02-06T16:24:27.863Z,79.00
2019-02-06T16:27:28.665Z,78.10
2019-02-06T16:30:30.399Z,79.10
2019-02-06T16:33:37.762Z,79.40
2019-02-06T16:36:35.216Z,77.10
2019-02-06T16:39:11.501Z,76.00
2019-02-06T16:42:25.641Z,76.40
2019-02-06T16:45:27.838Z,76.00
2019-02-06T16:48:29.240Z,75.00
2019-02-06T16:51:48.793Z,74.00
2019-02-06T16:54:54.305Z,74.70
2019-02-06T16:57:49.685Z,73.30
2019-02-06T17:00:37.601Z,72.10
2019-02-06T17:04:03.171Z,73.10
2019-02-06T17:06:41.839Z,70.50
2019-02-06T17:10:05.041Z,62.00
2019-02-06T17:12:56.853Z,58.10
2019-02-06T17:16:08.559Z,63.40
2019-02-06T17:19:04.606Z,59.40
2019-02-06T17:22:40.174Z,55.50
2019-02-06T17:25:30.998Z,54.80
2019-02-06T17:28:22.860Z,53.80
2019-02-06T17:31:33.640Z,48.10
2019-02-06T17:34:28.757Z,47.80
2019-02-06T17:37:56.236Z,48.20
2019-02-06T17:40:44.234Z,48.80
2019-02-06T17:44:07.741Z,48.30
2019-02-06T17:47:09.524Z,50.80
2019-02-06T17:50:17.828Z,49.30
2019-02-06T17:53:26.119Z,46.90
2019-02-06T17:55:56.170Z,48.00
2019-02-06T17:58:26.399Z,51.40
2019-02-06T18:01:17.177Z,54.20
2019-02-06T18:03:53.964Z,58.10
2019-02-06T18:06:23.915Z,58.30
2019-02-06T18:08:56.927Z,55.20
2019-02-06T18:11:25.843Z,57.50
2019-02-06T18:13:55.664Z,61.00
2019-02-06T18:16:25.576Z,61.90
2019-02-06T18:18:55.478Z,63.00
2019-02-06T18:21:25.404Z,63.10
2019-02-06T18:23:55.517Z,61.70
2019-02-06T18:26:25.561Z,60.80
2019-02-06T18:28:55.899Z,59.80
2019-02-06T18:31:25.873Z,59.90
2019-02-06T18:33:55.706Z,54.70
2019-02-06T18:36:25.672Z,51.70
2019-02-06T18:38:56.035Z,52.50
2019-02-06T18:41:25.637Z,52.00
2019-02-06T18:43:55.446Z,48.60
2019-02-06T18:46:26.089Z,49.60
2019-02-06T18:48:56.614Z,54.00
2019-02-06T18:51:27.242Z,52.90
2019-02-06T18:53:58.078Z,50.10
2019-02-06T18:56:28.729Z,48.90
2019-02-06T18:58:58.613Z,48.40
2019-02-06T19:01:28.880Z,47.90
2019-02-06T19:03:58.796Z,49.10
2019-02-06T19:06:29.497Z,46.80
2019-02-06T19:08:59.411Z,47.60
2019-02-06T19:11:30.270Z,49.00
2019-02-06T19:13:59.727Z,49.20
2019-02-06T19:16:30.326Z,49.90
2019-02-06T19:19:01.319Z,51.30
2019-02-06T19:21:31.248Z,50.10
2019-02-06T19:24:01.542Z,51.40
2019-02-06T19:26:31.874Z,53.20
2019-02-06T19:29:01.461Z,54.10
2019-02-06T19:31:31.398Z,55.50
2019-02-06T19:34:01.009Z,56.70
2019-02-06T19:36:31.508Z,58.70
2019-02-06T19:39:01.083Z,59.20
2019-02-06T19:41:31.247Z,62.40
2019-02-06T19:44:01.979Z,63.30
2019-02-06T19:46:31.661Z,65.00
2019-02-06T19:49:01.651Z,66.60
2019-02-06T19:51:32.071Z,67.60
2019-02-06T19:54:02.055Z,68.50
2019-02-06T19:56:32.671Z,70.70
2019-02-06T19:59:03.166Z,73.10
2019-02-06T20:01:33.094Z,73.80
2019-02-06T20:04:03.532Z,74.10
2019-02-06T20:06:33.835Z,75.10
2019-02-06T20:09:09.618Z,73.40
2019-02-06T20:11:40.457Z,72.20
2019-02-06T20:14:10.451Z,71.20
2019-02-06T20:16:40.740Z,70.20
2019-02-06T20:19:10.739Z,70.20
2019-02-06T20:21:40.959Z,67.50
2019-02-06T20:24:10.871Z,68.40
2019-02-06T20:26:41.179Z,67.30
2019-02-06T20:29:11.825Z,68.60
2019-02-06T20:31:41.867Z,70.00
2019-02-06T20:34:11.742Z,67.30
2019-02-06T20:36:42.454Z,69.60
2019-02-06T20:39:13.226Z,69.20
2019-02-06T20:41:43.176Z,70.00
2019-02-06T20:44:12.717Z,72.30
2019-02-06T20:46:42.768Z,72.60
2019-02-06T20:49:13.294Z,73.10
2019-02-06T20:51:43.621Z,72.80
2019-02-06T20:54:13.829Z,74.20
2019-02-06T20:56:43.966Z,75.80
2019-02-06T20:59:13.881Z,75.10
2019-02-06T21:01:44.201Z,75.50
2019-02-06T21:04:14.419Z,75.70
2019-02-06T21:06:44.313Z,75.00
2019-02-06T21:09:17.231Z,73.40
2019-02-06T21:11:47.627Z,73.90
2019-02-06T21:14:17.697Z,71.40
2019-02-06T21:16:47.572Z,70.90
2019-02-06T21:19:17.489Z,71.10
2019-02-06T21:21:47.075Z,71.50
2019-02-06T21:24:17.797Z,72.40
2019-02-06T21:26:48.287Z,73.30
2019-02-06T21:29:18.186Z,74.00
2019-02-06T21:31:48.093Z,74.60
2019-02-06T21:34:18.297Z,74.50
2019-02-06T21:36:48.876Z,74.20
2019-02-06T21:39:18.906Z,74.40
2019-02-06T21:41:48.444Z,76.10
2019-02-06T21:44:18.724Z,77.40
2019-02-06T21:46:48.599Z,78.30
2019-02-06T21:49:18.701Z,77.90
2019-02-06T21:51:48.531Z,76.80
2019-02-06T21:54:19.105Z,76.60
2019-02-06T21:56:49.535Z,77.30
2019-02-06T21:59:19.384Z,78.10
2019-02-06T22:01:49.987Z,78.80
2019-02-06T22:04:20.342Z,79.80
2019-02-06T22:06:50.142Z,79.40
2019-02-06T22:09:20.056Z,77.60
2019-02-06T22:11:49.987Z,78.20
2019-02-06T22:14:20.011Z,78.00
2019-02-06T22:16:49.112Z,78.70
2019-02-06T22:19:19.443Z,80.00
2019-02-06T22:21:49.416Z,78.60
2019-02-06T22:24:19.897Z,77.70
2019-02-06T22:26:49.672Z,77.60
2019-02-06T22:29:19.559Z,77.90
2019-02-06T22:31:49.795Z,79.40
2019-02-06T22:34:20.060Z,79.80
2019-02-06T22:36:50.041Z,81.30
2019-02-06T22:39:20.325Z,81.20
2019-02-06T22:41:50.172Z,81.10
2019-02-06T22:44:19.927Z,82.80
2019-02-06T22:46:50.188Z,82.50
2019-02-06T22:49:20.419Z,82.50
2019-02-06T22:51:50.574Z,82.60
2019-02-06T22:54:20.961Z,83.00
2019-02-06T22:56:51.106Z,83.20
2019-02-06T22:59:21.597Z,83.10
2019-02-06T23:01:57.608Z,82.80
2019-02-06T23:04:27.706Z,82.30
2019-02-06T23:06:57.698Z,82.60
2019-02-06T23:09:27.859Z,83.10
2019-02-06T23:11:58.002Z,83.60
2019-02-06T23:14:27.797Z,84.10
2019-02-06T23:16:58.044Z,85.20
2019-02-06T23:19:28.503Z,85.50
2019-02-06T23:21:58.252Z,86.90
2019-02-06T23:24:28.472Z,87.50
2019-02-06T23:26:57.967Z,88.30
2019-02-06T23:29:28.292Z,87.60
2019-02-06T23:31:58.106Z,88.10
2019-02-06T23:34:28.304Z,87.80
2019-02-06T23:36:58.145Z,88.30
2019-02-06T23:39:28.400Z,88.70
2019-02-06T23:41:59.081Z,88.60
2019-02-06T23:44:29.347Z,88.40
2019-02-06T23:46:59.706Z,88.00
2019-02-06T23:49:29.935Z,87.80
2019-02-06T23:51:59.780Z,87.90
2019-02-06T23:54:29.843Z,87.70
2019-02-06T23:57:00.347Z,88.20
2019-02-06T23:59:30.265Z,87.50
